createdAt,value
2018-07-23T00:00:02.513Z,16.57
2018-07-23T00:02:30.648Z,17.80
2018-07-23T00:04:59.036Z,16.77
2018-07-23T00:07:27.424Z,16.50
2018-07-23T00:09:55.785Z,17.20
2018-07-23T00:12:24.234Z,15.47
2018-07-23T00:14:52.571Z,17.00
2018-07-23T00:17:21.003Z,15.60
2018-07-23T00:19:49.368Z,16.07
2018-07-23T00:22:17.720Z,15.90
2018-07-23T00:24:45.740Z,16.50
2018-07-23T00:27:14.152Z,17.37
2018-07-23T00:29:42.494Z,14.97
2018-07-23T00:32:10.841Z,15.80
2018-07-23T00:34:38.903Z,15.70
2018-07-23T00:37:07.345Z,15.73
2018-07-23T00:39:35.715Z,14.80
2018-07-23T00:42:04.086Z,16.00
2018-07-23T00:44:32.462Z,17.50
2018-07-23T00:47:00.852Z,16.27
2018-07-23T00:49:29.200Z,15.80
2018-07-23T00:51:57.624Z,15.80
2018-07-23T00:54:26.016Z,16.33
2018-07-23T00:56:54.410Z,16.67
2018-07-23T00:59:22.814Z,16.10
2018-07-23T01:01:51.149Z,15.80
2018-07-23T01:04:19.515Z,16.60
2018-07-23T01:06:47.867Z,16.40
2018-07-23T01:09:16.193Z,16.13
2018-07-23T01:11:44.575Z,17.33
2018-07-23T01:14:12.941Z,16.93
2018-07-23T01:16:41.313Z,17.37
2018-07-23T01:19:09.656Z,17.50
2018-07-23T01:21:38.085Z,17.80
2018-07-23T01:24:06.470Z,16.93
2018-07-23T01:26:34.848Z,17.07
2018-07-23T01:29:03.262Z,17.40
2018-07-23T01:31:31.619Z,17.87
2018-07-23T01:34:00.092Z,16.57
2018-07-23T01:36:28.460Z,16.10
2018-07-23T01:38:56.864Z,16.43
2018-07-23T01:41:25.168Z,15.90
2018-07-23T01:43:53.579Z,16.83
2018-07-23T01:46:21.940Z,16.17
2018-07-23T01:48:50.272Z,16.13
2018-07-23T01:51:18.668Z,15.20
2018-07-23T01:53:47.027Z,15.93
2018-07-23T01:56:15.380Z,16.63
2018-07-23T01:58:43.751Z,16.40
2018-07-23T02:01:12.847Z,18.00
2018-07-23T02:03:42.013Z,18.00
2018-07-23T02:06:10.722Z,17.03
2018-07-23T02:08:39.175Z,16.90
2018-07-23T02:11:07.894Z,17.03
2018-07-23T02:13:36.291Z,16.47
2018-07-23T02:16:04.732Z,17.10
2018-07-23T02:18:33.104Z,16.73
2018-07-23T02:21:01.566Z,17.03
2018-07-23T02:23:29.952Z,17.90
2018-07-23T02:25:58.376Z,17.10
2018-07-23T02:28:26.725Z,18.20
2018-07-23T02:30:55.086Z,17.77
2018-07-23T02:33:23.434Z,17.23
2018-07-23T02:35:51.819Z,18.63
2018-07-23T02:38:19.878Z,19.20
2018-07-23T02:40:48.300Z,18.37
2018-07-23T02:43:16.821Z,19.50
2018-07-23T02:45:45.169Z,19.13
2018-07-23T02:48:13.551Z,19.40
2018-07-23T02:50:41.957Z,18.57
2018-07-23T02:53:10.377Z,20.20
2018-07-23T02:55:38.709Z,17.90
2018-07-23T02:58:07.193Z,16.27
2018-07-23T03:00:35.561Z,16.37
2018-07-23T03:03:03.991Z,16.80
2018-07-23T03:05:32.065Z,17.13
2018-07-23T03:08:00.443Z,18.17
2018-07-23T03:10:28.793Z,17.40
2018-07-23T03:12:57.206Z,17.00
2018-07-23T03:15:25.643Z,16.50
2018-07-23T03:17:54.060Z,16.90
2018-07-23T03:20:22.115Z,16.73
2018-07-23T03:22:50.477Z,16.83
2018-07-23T03:25:18.832Z,17.33
2018-07-23T03:27:47.181Z,17.90
2018-07-23T03:30:15.582Z,16.97
2018-07-23T03:32:43.926Z,17.70
2018-07-23T03:35:12.307Z,18.67
2018-07-23T03:37:40.669Z,18.63
2018-07-23T03:40:09.048Z,17.30
2018-07-23T03:42:37.398Z,16.07
2018-07-23T03:45:06.453Z,16.63
2018-07-23T03:47:34.825Z,17.83
2018-07-23T03:50:02.938Z,17.10
2018-07-23T03:52:31.502Z,18.03
2018-07-23T03:54:59.865Z,17.37
2018-07-23T03:57:28.204Z,17.47
2018-07-23T03:59:56.642Z,17.47
2018-07-23T04:02:25.012Z,16.40
2018-07-23T04:04:53.408Z,17.70
2018-07-23T04:07:21.780Z,18.37
2018-07-23T04:09:50.155Z,18.73
2018-07-23T04:12:18.598Z,18.10
2018-07-23T04:14:46.964Z,17.13
2018-07-23T04:17:15.351Z,17.87
2018-07-23T04:19:43.766Z,17.73
2018-07-23T04:22:12.205Z,17.63
2018-07-23T04:24:40.547Z,17.37
2018-07-23T04:27:08.944Z,18.93
2018-07-23T04:29:37.321Z,17.60
2018-07-23T04:32:05.711Z,18.33
2018-07-23T04:34:34.080Z,18.40
2018-07-23T04:37:02.439Z,18.73
2018-07-23T04:39:30.791Z,18.00
2018-07-23T04:41:59.162Z,18.80
2018-07-23T04:44:27.549Z,18.73
2018-07-23T04:46:55.922Z,20.50
2018-07-23T04:49:24.259Z,22.50
2018-07-23T04:51:52.720Z,22.67
2018-07-23T04:54:21.064Z,22.67
2018-07-23T04:56:49.447Z,21.70
2018-07-23T04:59:17.475Z,21.40
2018-07-23T05:01:45.928Z,22.63
2018-07-23T05:04:14.278Z,23.17
2018-07-23T05:06:42.718Z,22.17
2018-07-23T05:09:12.496Z,21.13
2018-07-23T05:11:41.402Z,20.93
2018-07-23T05:14:10.360Z,20.83
2018-07-23T05:16:38.761Z,21.67
2018-07-23T05:19:07.408Z,21.40
2018-07-23T05:21:35.860Z,19.87
2018-07-23T05:24:04.329Z,19.37
2018-07-23T05:26:33.892Z,21.37
2018-07-23T05:29:02.365Z,20.93
2018-07-23T05:31:30.748Z,22.80
2018-07-23T05:33:59.127Z,23.90
2018-07-23T05:36:27.510Z,24.43
2018-07-23T05:38:55.901Z,23.87
2018-07-23T05:41:24.271Z,26.00
2018-07-23T05:43:52.672Z,30.23
2018-07-23T05:46:21.157Z,29.43
2018-07-23T05:48:49.540Z,30.13
2018-07-23T05:51:17.982Z,27.90
2018-07-23T05:53:46.365Z,28.37
2018-07-23T05:56:14.764Z,27.50
2018-07-23T05:58:43.140Z,27.97
2018-07-23T06:01:11.561Z,27.50
2018-07-23T06:03:40.125Z,29.20
2018-07-23T06:06:08.478Z,27.67
2018-07-23T06:08:36.857Z,28.97
2018-07-23T06:11:05.241Z,29.40
2018-07-23T06:13:33.725Z,31.33
2018-07-23T06:16:02.076Z,32.20
2018-07-23T06:18:30.523Z,31.73
2018-07-23T06:20:58.953Z,32.70
2018-07-23T06:23:27.286Z,31.93
2018-07-23T06:25:55.702Z,30.20
2018-07-23T06:28:24.104Z,30.53
2018-07-23T06:30:52.458Z,32.17
2018-07-23T06:33:20.860Z,29.93
2018-07-23T06:35:49.274Z,29.90
2018-07-23T06:38:17.632Z,30.77
2018-07-23T06:40:46.022Z,30.83
2018-07-23T06:43:14.400Z,30.70
2018-07-23T06:45:42.773Z,30.53
2018-07-23T06:48:11.200Z,28.80
2018-07-23T06:50:39.554Z,27.30
2018-07-23T06:53:07.959Z,29.60
2018-07-23T06:55:36.316Z,28.00
2018-07-23T06:58:04.748Z,27.40
2018-07-23T07:00:33.172Z,26.07
2018-07-23T07:03:01.544Z,27.10
2018-07-23T07:05:29.875Z,26.57
2018-07-23T07:07:58.294Z,28.43
2018-07-23T07:10:26.636Z,28.17
2018-07-23T07:12:55.085Z,26.23
2018-07-23T07:15:23.477Z,25.40
2018-07-23T07:17:51.922Z,25.97
2018-07-23T07:20:20.400Z,26.20
2018-07-23T07:22:48.817Z,26.73
2018-07-23T07:25:17.240Z,26.77
2018-07-23T07:27:45.598Z,28.83
2018-07-23T07:30:14.188Z,28.47
2018-07-23T07:32:42.608Z,26.20
2018-07-23T07:35:11.028Z,26.37
2018-07-23T07:37:39.492Z,25.10
2018-07-23T07:40:07.925Z,26.50
2018-07-23T07:42:36.317Z,25.83
2018-07-23T07:45:05.391Z,25.90
2018-07-23T07:47:33.761Z,24.50
2018-07-23T07:50:02.290Z,24.20
2018-07-23T07:52:30.693Z,26.37
2018-07-23T07:54:59.117Z,24.90
2018-07-23T07:57:27.544Z,25.40
2018-07-23T07:59:55.798Z,24.17
2018-07-23T08:02:24.272Z,21.77
2018-07-23T08:04:52.703Z,23.70
2018-07-23T08:07:21.121Z,23.00
2018-07-23T08:09:49.571Z,22.37
2018-07-23T08:12:17.996Z,22.40
2018-07-23T08:14:46.437Z,22.20
2018-07-23T08:17:14.863Z,21.57
2018-07-23T08:19:43.303Z,20.97
2018-07-23T08:22:11.685Z,22.80
2018-07-23T08:24:40.155Z,26.60
2018-07-23T08:27:08.538Z,26.10
2018-07-23T08:29:36.937Z,24.40
2018-07-23T08:32:05.485Z,23.63
2018-07-23T08:34:33.832Z,23.43
2018-07-23T08:37:02.248Z,22.00
2018-07-23T08:39:30.565Z,21.10
2018-07-23T08:41:59.028Z,21.43
2018-07-23T08:44:27.371Z,21.70
2018-07-23T08:46:55.733Z,20.60
2018-07-23T08:49:24.142Z,23.30
2018-07-23T08:51:52.569Z,22.43
2018-07-23T08:54:21.043Z,23.00
2018-07-23T08:56:49.440Z,20.60
2018-07-23T08:59:17.871Z,21.10
2018-07-23T09:01:46.227Z,19.93
2018-07-23T09:04:14.634Z,22.80
2018-07-23T09:06:43.128Z,20.47
2018-07-23T09:09:11.898Z,19.77
2018-07-23T09:11:40.404Z,19.60
2018-07-23T09:14:08.982Z,19.53
2018-07-23T09:16:37.392Z,18.60
2018-07-23T09:19:05.904Z,19.50
2018-07-23T09:21:34.309Z,19.80
2018-07-23T09:24:02.649Z,19.70
2018-07-23T09:26:31.072Z,17.97
2018-07-23T09:28:59.870Z,18.80
2018-07-23T09:31:28.214Z,19.17
2018-07-23T09:33:56.593Z,17.97
2018-07-23T09:36:24.900Z,18.47
2018-07-23T09:38:53.287Z,18.27
2018-07-23T09:41:21.681Z,19.40
2018-07-23T09:43:50.059Z,20.10
2018-07-23T09:46:18.466Z,18.17
2018-07-23T09:48:46.898Z,20.80
2018-07-23T09:51:15.300Z,19.83
2018-07-23T09:53:43.692Z,20.43
2018-07-23T09:56:12.849Z,18.90
2018-07-23T09:58:41.213Z,20.00
2018-07-23T10:01:11.957Z,20.10
2018-07-23T10:03:40.812Z,17.70
2018-07-23T10:06:09.157Z,19.10
2018-07-23T10:08:37.545Z,18.73
2018-07-23T10:11:05.964Z,20.57
2018-07-23T10:13:34.401Z,19.10
2018-07-23T10:16:02.748Z,18.67
2018-07-23T10:18:31.169Z,18.27
2018-07-23T10:20:59.548Z,18.33
2018-07-23T10:23:28.005Z,18.20
2018-07-23T10:25:56.398Z,17.73
2018-07-23T10:28:24.767Z,16.60
2018-07-23T10:30:53.164Z,15.97
2018-07-23T10:33:21.565Z,16.03
2018-07-23T10:35:49.966Z,15.87
2018-07-23T10:38:18.326Z,16.47
2018-07-23T10:40:46.709Z,17.80
2018-07-23T10:43:15.105Z,17.10
2018-07-23T10:45:43.474Z,18.90
2018-07-23T10:48:11.892Z,18.87
2018-07-23T10:50:40.282Z,19.33
2018-07-23T10:53:08.765Z,18.50
2018-07-23T10:55:37.191Z,18.67
2018-07-23T10:58:05.804Z,20.77
2018-07-23T11:00:34.155Z,19.83
2018-07-23T11:03:02.569Z,20.10
2018-07-23T11:05:30.965Z,19.60
2018-07-23T11:07:59.362Z,19.33
2018-07-23T11:10:27.418Z,19.50
2018-07-23T11:12:55.864Z,19.63
2018-07-23T11:15:24.197Z,20.73
2018-07-23T11:17:52.637Z,20.17
2018-07-23T11:20:21.118Z,20.53
2018-07-23T11:22:49.521Z,19.90
2018-07-23T11:25:39.087Z,21.03
2018-07-23T11:27:46.457Z,19.60
2018-07-23T11:30:14.847Z,21.13
2018-07-23T11:32:43.297Z,19.30
2018-07-23T11:35:11.684Z,19.60
2018-07-23T11:37:40.087Z,19.40
2018-07-23T11:40:08.519Z,18.37
2018-07-23T11:42:37.005Z,17.20
2018-07-23T11:45:05.485Z,17.77
2018-07-23T11:47:33.887Z,17.27
2018-07-23T11:50:02.308Z,17.77
2018-07-23T11:52:30.684Z,16.67
2018-07-23T11:54:59.094Z,16.70
2018-07-23T11:57:27.437Z,16.03
2018-07-23T11:59:55.788Z,16.90
2018-07-23T12:02:24.239Z,16.57
2018-07-23T12:04:52.654Z,15.47
2018-07-23T12:07:21.059Z,15.23
2018-07-23T12:09:49.453Z,13.50
2018-07-23T12:12:17.867Z,13.70
2018-07-23T12:14:46.202Z,13.30
2018-07-23T12:17:14.688Z,12.53
2018-07-23T12:19:43.081Z,11.93
2018-07-23T12:22:11.471Z,11.80
2018-07-23T12:24:39.948Z,12.13
2018-07-23T12:27:08.406Z,12.30
2018-07-23T12:29:36.840Z,12.20
2018-07-23T12:32:05.252Z,11.27
2018-07-23T12:34:33.658Z,10.93
2018-07-23T12:37:02.082Z,11.20
2018-07-23T12:39:30.547Z,11.10
2018-07-23T12:41:58.893Z,11.43
2018-07-23T12:44:27.289Z,10.70
2018-07-23T12:46:55.828Z,10.60
2018-07-23T12:49:24.268Z,10.40
2018-07-23T12:51:52.716Z,10.30
2018-07-23T12:54:21.032Z,9.57
2018-07-23T12:56:49.539Z,9.87
2018-07-23T12:59:18.082Z,9.53
2018-07-23T13:01:46.570Z,9.00
2018-07-23T13:04:15.157Z,9.47
2018-07-23T13:06:43.904Z,9.10
2018-07-23T13:09:13.166Z,8.97
2018-07-23T13:11:41.662Z,9.50
2018-07-23T13:14:10.204Z,9.33
2018-07-23T13:16:38.653Z,9.33
2018-07-23T13:19:07.283Z,9.30
2018-07-23T13:21:35.851Z,9.83
2018-07-23T13:24:04.463Z,10.63
2018-07-23T13:26:32.909Z,11.03
2018-07-23T13:29:01.420Z,10.37
2018-07-23T13:31:29.854Z,10.20
2018-07-23T13:33:58.355Z,10.03
2018-07-23T13:36:26.788Z,9.37
2018-07-23T13:38:55.455Z,9.30
2018-07-23T13:41:23.882Z,9.20
2018-07-23T13:43:52.307Z,8.93
2018-07-23T13:46:20.818Z,10.37
2018-07-23T13:48:49.141Z,9.70
2018-07-23T13:51:17.608Z,9.93
2018-07-23T13:53:46.181Z,10.20
2018-07-23T13:56:14.283Z,9.77
2018-07-23T13:58:42.760Z,9.70
2018-07-23T14:01:11.254Z,11.40
2018-07-23T14:03:39.675Z,11.03
2018-07-23T14:06:08.217Z,10.70
2018-07-23T14:08:36.701Z,11.40
2018-07-23T14:11:05.131Z,10.70
2018-07-23T14:13:33.565Z,9.90
2018-07-23T14:16:02.040Z,9.70
2018-07-23T14:18:30.439Z,10.63
2018-07-23T14:20:58.934Z,9.70
2018-07-23T14:23:27.346Z,9.63
2018-07-23T14:25:55.797Z,10.30
2018-07-23T14:28:24.272Z,10.10
2018-07-23T14:30:52.739Z,10.13
2018-07-23T14:33:21.233Z,9.80
2018-07-23T14:35:49.713Z,9.90
2018-07-23T14:38:18.131Z,10.50
2018-07-23T14:40:46.602Z,10.50
2018-07-23T14:43:15.063Z,10.03
2018-07-23T14:45:43.492Z,8.93
2018-07-23T14:48:11.923Z,9.03
2018-07-23T14:50:40.433Z,8.57
2018-07-23T14:53:08.858Z,8.67
2018-07-23T14:55:37.392Z,8.90
2018-07-23T14:58:05.849Z,8.23
2018-07-23T15:00:34.314Z,8.40
2018-07-23T15:03:02.780Z,8.10
2018-07-23T15:05:31.281Z,7.70
2018-07-23T15:07:59.735Z,7.23
2018-07-23T15:10:28.247Z,7.43
2018-07-23T15:12:56.669Z,7.10
2018-07-23T15:15:25.060Z,7.80
2018-07-23T15:17:53.473Z,7.67
2018-07-23T15:20:21.949Z,7.40
2018-07-23T15:22:50.369Z,7.90
2018-07-23T15:25:18.870Z,8.10
2018-07-23T15:27:47.278Z,8.60
2018-07-23T15:30:15.736Z,9.20
2018-07-23T15:32:44.193Z,7.90
2018-07-23T15:35:12.627Z,8.33
2018-07-23T15:37:41.048Z,8.70
2018-07-23T15:40:09.553Z,7.50
2018-07-23T15:42:37.972Z,7.93
2018-07-23T15:45:06.601Z,8.00
2018-07-23T15:47:34.929Z,7.97
2018-07-23T15:50:03.369Z,8.07
2018-07-23T15:52:31.847Z,7.50
2018-07-23T15:55:00.366Z,8.20
2018-07-23T15:57:28.893Z,8.40
2018-07-23T15:59:57.375Z,7.90
2018-07-23T16:02:25.833Z,8.60
2018-07-23T16:04:54.288Z,7.53
2018-07-23T16:07:22.735Z,7.40
2018-07-23T16:09:51.104Z,7.53
2018-07-23T16:12:19.588Z,7.90
2018-07-23T16:14:48.049Z,7.80
2018-07-23T16:17:16.441Z,8.73
2018-07-23T16:19:44.938Z,8.43
2018-07-23T16:22:13.372Z,8.30
2018-07-23T16:24:41.898Z,8.83
2018-07-23T16:27:10.393Z,8.43
2018-07-23T16:29:38.920Z,8.70
2018-07-23T16:32:07.346Z,8.20
2018-07-23T16:34:35.737Z,8.10
2018-07-23T16:37:04.297Z,7.87
2018-07-23T16:39:32.689Z,8.30
2018-07-23T16:42:01.173Z,8.00
2018-07-23T16:44:29.818Z,8.47
2018-07-23T16:46:58.251Z,8.97
2018-07-23T16:49:26.755Z,8.00
2018-07-23T16:51:55.636Z,8.37
2018-07-23T16:54:24.620Z,8.60
2018-07-23T16:56:53.491Z,9.20
2018-07-23T16:59:22.729Z,9.60
2018-07-23T17:01:52.192Z,8.30
2018-07-23T17:04:21.829Z,8.50
2018-07-23T17:06:51.042Z,8.50
2018-07-23T17:09:20.080Z,8.73
2018-07-23T17:11:49.188Z,9.30
2018-07-23T17:14:18.289Z,9.20
2018-07-23T17:16:47.647Z,10.10
2018-07-23T17:19:16.522Z,8.90
2018-07-23T17:21:45.213Z,8.60
2018-07-23T17:24:13.824Z,9.13
2018-07-23T17:26:42.471Z,9.13
2018-07-23T17:29:11.316Z,9.77
2018-07-23T17:31:40.199Z,8.77
2018-07-23T17:34:08.809Z,9.17
2018-07-23T17:36:37.386Z,8.70
2018-07-23T17:39:09.409Z,9.20
2018-07-23T17:41:37.978Z,8.70
2018-07-23T17:44:06.548Z,9.17
2018-07-23T17:46:34.980Z,9.27
2018-07-23T17:49:03.857Z,9.97
2018-07-23T17:51:32.797Z,8.40
2018-07-23T17:54:01.452Z,9.17
2018-07-23T17:56:30.178Z,13.80
2018-07-23T17:58:58.614Z,9.77
2018-07-23T18:01:27.028Z,9.30
2018-07-23T18:03:55.409Z,9.60
2018-07-23T18:06:23.948Z,11.93
2018-07-23T18:08:52.296Z,16.10
2018-07-23T18:11:20.812Z,10.10
2018-07-23T18:13:49.175Z,10.40
2018-07-23T18:16:17.626Z,9.33
2018-07-23T18:18:46.018Z,10.87
2018-07-23T18:21:14.452Z,10.90
2018-07-23T18:23:42.948Z,10.40
2018-07-23T18:26:11.540Z,10.93
2018-07-23T18:28:40.182Z,11.50
2018-07-23T18:31:08.768Z,11.40
2018-07-23T18:33:37.217Z,11.23
2018-07-23T18:36:05.640Z,10.60
2018-07-23T18:38:34.342Z,11.10
2018-07-23T18:41:02.543Z,11.23
2018-07-23T18:43:30.969Z,11.43
2018-07-23T18:45:59.374Z,10.70
2018-07-23T18:49:38.136Z,11.83
2018-07-23T18:52:06.687Z,11.90
2018-07-23T18:54:35.601Z,11.90
2018-07-23T18:57:05.370Z,11.80
2018-07-23T18:59:33.821Z,11.53
2018-07-23T19:02:03.534Z,12.00
2018-07-23T19:04:32.443Z,12.17
2018-07-23T19:07:01.686Z,12.60
2018-07-23T19:09:30.553Z,13.53
2018-07-23T19:11:59.633Z,13.67
2018-07-23T19:16:56.761Z,13.32
2018-07-23T19:19:25.355Z,14.33
2018-07-23T19:21:54.034Z,15.63
2018-07-23T19:24:22.863Z,14.33
2018-07-23T19:26:51.542Z,15.23
2018-07-23T19:29:19.994Z,15.70
2018-07-23T19:31:48.474Z,14.30
2018-07-23T19:34:16.851Z,14.73
2018-07-23T19:36:45.617Z,15.40
2018-07-23T19:39:15.347Z,15.30
2018-07-23T19:41:43.773Z,15.20
2018-07-23T19:44:12.528Z,15.27
2018-07-23T19:46:41.488Z,15.93
2018-07-23T19:49:10.077Z,15.67
2018-07-23T19:51:38.778Z,15.43
2018-07-23T19:54:08.213Z,15.80
2018-07-23T19:56:38.219Z,16.70
2018-07-23T19:59:06.829Z,17.27
2018-07-23T20:01:35.014Z,17.10
2018-07-23T20:04:03.165Z,15.40
2018-07-23T20:06:31.742Z,27.77
2018-07-23T20:09:00.856Z,25.67
2018-07-23T20:11:29.828Z,19.57
2018-07-23T20:13:58.368Z,18.33
2018-07-23T20:16:26.846Z,17.20
2018-07-23T20:18:55.331Z,16.23
2018-07-23T20:21:23.922Z,17.23
2018-07-23T20:23:52.393Z,17.27
2018-07-23T20:26:20.779Z,17.20
2018-07-23T20:28:49.302Z,17.80
2018-07-23T20:31:18.038Z,17.40
2018-07-23T20:33:46.519Z,17.00
2018-07-23T20:36:15.006Z,17.43
2018-07-23T20:38:43.466Z,17.53
2018-07-23T20:41:11.912Z,17.33
2018-07-23T20:43:40.483Z,18.03
2018-07-23T20:46:08.972Z,18.07
2018-07-23T20:48:37.404Z,18.70
2018-07-23T20:51:05.903Z,18.60
2018-07-23T20:53:34.389Z,19.50
2018-07-23T20:56:02.828Z,20.80
2018-07-23T20:58:31.249Z,21.77
2018-07-23T21:00:59.696Z,19.83
2018-07-23T21:03:27.833Z,20.10
2018-07-23T21:05:56.305Z,19.63
2018-07-23T21:08:24.725Z,20.03
2018-07-23T21:10:53.240Z,21.40
2018-07-23T21:13:21.694Z,20.00
2018-07-23T21:15:50.118Z,21.77
2018-07-23T21:18:18.604Z,20.70
2018-07-23T21:20:47.060Z,22.70
2018-07-23T21:23:15.567Z,21.30
2018-07-23T21:25:43.986Z,22.87
2018-07-23T21:28:12.063Z,22.00
2018-07-23T21:30:40.572Z,22.80
2018-07-23T21:33:09.008Z,21.10
2018-07-23T21:35:37.110Z,23.67
2018-07-23T21:38:05.679Z,23.43
2018-07-23T21:40:34.067Z,22.87
2018-07-23T21:43:02.579Z,23.27
2018-07-23T21:45:31.016Z,23.93
2018-07-23T21:47:59.439Z,23.70
2018-07-23T21:50:27.963Z,22.13
2018-07-23T21:52:56.431Z,21.83
2018-07-23T21:55:24.900Z,22.43
2018-07-23T21:57:53.384Z,22.60
2018-07-23T22:00:21.899Z,20.47
2018-07-23T22:02:50.393Z,21.40
2018-07-23T22:05:18.806Z,22.60
2018-07-23T22:07:47.293Z,24.00
2018-07-23T22:10:15.725Z,23.37
2018-07-23T22:12:43.800Z,21.77
2018-07-23T22:15:12.308Z,21.33
2018-07-23T22:17:40.821Z,22.23
2018-07-23T22:20:09.635Z,21.87
2018-07-23T22:22:38.073Z,22.10
2018-07-23T22:25:06.476Z,21.43
2018-07-23T22:27:34.924Z,21.63
2018-07-23T22:30:04.682Z,23.00
2018-07-23T22:32:33.074Z,22.70
2018-07-23T22:35:01.189Z,22.77
2018-07-23T22:37:29.612Z,23.20
2018-07-23T22:39:58.065Z,23.87
2018-07-23T22:42:26.985Z,24.30
2018-07-23T22:44:55.421Z,23.23
2018-07-23T22:47:23.796Z,24.00
2018-07-23T22:49:52.300Z,23.73
2018-07-23T22:52:20.742Z,24.93
2018-07-23T22:54:49.122Z,23.80
2018-07-23T22:57:17.588Z,24.23
2018-07-23T22:59:45.688Z,25.50
2018-07-23T23:02:14.113Z,26.30
2018-07-23T23:04:42.581Z,29.00
2018-07-23T23:07:10.947Z,28.30
2018-07-23T23:09:39.384Z,26.77
2018-07-23T23:12:07.921Z,26.53
2018-07-23T23:14:36.316Z,29.27
2018-07-23T23:17:04.720Z,27.10
2018-07-23T23:19:33.176Z,25.10
2018-07-23T23:22:01.520Z,26.27
2018-07-23T23:24:29.920Z,26.30
2018-07-23T23:26:58.291Z,25.63
2018-07-23T23:29:26.707Z,25.47
2018-07-23T23:31:55.056Z,25.27
2018-07-23T23:34:23.474Z,25.80
2018-07-23T23:36:51.916Z,25.57
2018-07-23T23:39:20.275Z,24.23
2018-07-23T23:41:48.676Z,26.03
2018-07-23T23:44:17.079Z,24.67
2018-07-23T23:46:45.553Z,25.77
2018-07-23T23:49:13.932Z,25.70
2018-07-23T23:51:42.311Z,25.90
2018-07-23T23:54:10.760Z,25.97
2018-07-23T23:56:39.167Z,26.97
2018-07-23T23:59:07.516Z,28.20
